Time;durP1;ratioP1;P1;durP2;ratioP2;P2;SDS_P1;SDS_P2;PMS_P1;PMS_P2;Temp;Humidity;BMP_temperature;BMP_pressure;BME280_temperature;BME280_humidity;BME280_pressure;Samples;Min_cycle;Max_cycle;Signal;HPM_P1;HPM_P2
2023/11/29 00:04:07;;;;;;;12.35;1.80;;;;;;;19.11;100.00;100938.84;10602464;27;20047;-81
2023/11/29 00:09:30;;;;;;;10.55;1.45;;;;;;;19.20;100.00;100962.78;10574834;27;20063;-81
2023/11/29 00:14:52;;;;;;;9.27;1.52;;;;;;;19.24;100.00;100948.44;10590040;27;20077;-79
2023/11/29 00:20:16;;;;;;;15.20;2.33;;;;;;;19.27;100.00;100955.53;10583539;27;20036;-78
2023/11/29 00:25:39;;;;;;;12.25;1.67;;;;;;;19.14;100.00;100937.94;10586843;27;20130;-78
2023/11/29 00:31:02;;;;;;;11.77;1.92;;;;;;;19.20;99.85;100946.75;10586802;27;20050;-77
2023/11/29 00:36:27;;;;;;;6.47;1.83;;;;;;;19.19;99.60;100944.06;10591591;27;20071;-78
2023/11/29 00:41:49;;;;;;;12.40;1.80;;;;;;;19.14;100.00;100946.84;10553806;27;20047;-79
2023/11/29 00:47:12;;;;;;;5.50;1.98;;;;;;;19.18;100.00;100924.47;10576169;27;20099;-78
2023/11/29 01:12:36;;;;;;;6.38;1.73;;;;;;;19.15;100.00;100926.31;10574558;27;20078;-81
2023/11/29 01:17:59;;;;;;;5.97;1.52;;;;;;;19.24;100.00;100924.34;10585217;27;20051;-81
2023/11/29 01:23:21;;;;;;;5.75;1.00;;;;;;;19.25;100.00;100931.47;10574177;27;20397;-81
2023/11/29 01:28:45;;;;;;;7.03;1.40;;;;;;;19.27;99.44;100920.75;10590422;27;20035;-80
2023/11/29 01:34:08;;;;;;;13.88;1.60;;;;;;;19.25;100.00;100923.44;10594210;27;20154;-81
2023/11/29 01:39:31;;;;;;;5.25;1.25;;;;;;;19.18;100.00;100916.44;10582405;27;20121;-81
2023/11/29 01:44:55;;;;;;;13.13;1.80;;;;;;;19.26;100.00;100901.13;10603218;27;20104;-81
2023/11/29 01:50:21;;;;;;;6.18;1.25;;;;;;;19.34;100.00;100892.97;10598538;27;20074;-80
2023/11/29 01:55:50;;;;;;;4.90;1.13;;;;;;;19.45;99.37;100882.91;10568307;27;20135;-80
2023/11/29 02:01:15;;;;;;;12.60;1.60;;;;;;;19.50;98.62;100886.41;10565350;27;20047;-81
2023/11/29 02:06:37;;;;;;;9.52;1.58;;;;;;;19.45;100.00;100890.97;10571246;28;20235;-81
2023/11/29 02:12:00;;;;;;;8.43;1.40;;;;;;;19.40;100.00;100895.53;10562989;27;20044;-81
2023/11/29 02:17:24;;;;;;;6.20;1.15;;;;;;;19.22;100.00;100898.53;10548151;28;20047;-81
2023/11/29 02:22:52;;;;;;;9.93;1.70;;;;;;;19.30;100.00;100891.22;10562622;28;20058;-81
2023/11/29 02:28:16;;;;;;;;;;;;;;;19.26;100.00;100885.06;10587115;27;20051;-81
2023/11/29 02:33:38;;;;;;;11.88;1.98;;;;;;;19.38;100.00;100887.50;10586465;28;19930;-81
2023/11/29 02:39:01;;;;;;;13.20;1.95;;;;;;;19.49;100.00;100890.03;10573950;28;20051;-80
2023/11/29 02:44:26;;;;;;;9.15;1.40;;;;;;;19.45;100.00;100904.34;10590451;28;20520;-80
2023/11/29 02:49:48;;;;;;;6.35;1.45;;;;;;;19.65;100.00;100904.00;10586679;28;20512;-81
2023/11/29 02:55:11;;;;;;;6.50;1.60;;;;;;;19.72;99.71;100894.94;10574885;27;20039;-80
2023/11/29 03:00:34;;;;;;;9.73;1.50;;;;;;;19.66;100.00;100877.19;10590837;27;20401;-81
2023/11/29 03:05:57;;;;;;;13.32;1.70;;;;;;;19.64;100.00;100887.03;10590870;27;20618;-80
2023/11/29 03:11:19;;;;;;;13.23;1.90;;;;;;;19.64;100.00;100879.00;10577398;27;20039;-81
2023/11/29 03:16:43;;;;;;;7.43;1.45;;;;;;;19.63;100.00;100911.19;10590066;27;20092;-80
2023/11/29 03:22:06;;;;;;;11.45;2.05;;;;;;;19.56;100.00;100913.09;10562525;27;20370;-81
2023/11/29 03:27:28;;;;;;;8.27;1.88;;;;;;;19.67;100.00;100916.47;10595415;27;20370;-81
2023/11/29 03:32:52;;;;;;;13.57;2.03;;;;;;;19.67;100.00;100904.88;10558494;27;20047;-80
2023/11/29 03:38:15;;;;;;;6.88;1.23;;;;;;;19.66;100.00;100924.53;10575874;27;20071;-81
2023/11/29 03:43:38;;;;;;;15.13;2.20;;;;;;;19.67;100.00;100921.81;10589044;27;20063;-81
2023/11/29 03:49:02;;;;;;;9.88;1.70;;;;;;;19.65;100.00;100922.75;10579350;27;20043;-81
2023/11/29 03:54:24;;;;;;;7.15;1.70;;;;;;;19.53;100.00;100929.22;10604920;27;20515;-80
2023/11/29 03:59:46;;;;;;;10.40;1.85;;;;;;;19.56;100.00;100925.63;10591173;27;20430;-81
2023/11/29 04:05:10;;;;;;;12.20;2.03;;;;;;;19.56;100.00;100933.66;10579066;27;20043;-81
2023/11/29 04:10:34;;;;;;;10.05;2.10;;;;;;;19.40;100.00;100933.00;10582169;27;20238;-82
2023/11/29 04:15:56;;;;;;;8.77;1.70;;;;;;;19.24;100.00;100932.38;10564215;27;20070;-81
2023/11/29 04:21:26;;;;;;;11.48;2.00;;;;;;;19.33;100.00;100921.53;10589026;27;20092;-81
2023/11/29 04:26:48;;;;;;;11.65;1.95;;;;;;;19.29;100.00;100924.28;10588832;27;20047;-80
2023/11/29 04:32:11;;;;;;;13.85;2.20;;;;;;;19.26;100.00;100919.88;10572298;27;20184;-80
2023/11/29 04:37:35;;;;;;;9.23;2.67;;;;;;;19.26;100.00;100918.97;10544847;27;20105;-80
2023/11/29 04:42:58;;;;;;;7.85;2.15;;;;;;;19.07;100.00;100913.94;10565509;27;20050;-80
2023/11/29 04:48:21;;;;;;;17.15;2.17;;;;;;;19.19;100.00;100917.31;10571933;27;20066;-80
2023/11/29 04:53:46;;;;;;;17.40;2.50;;;;;;;19.11;100.00;100921.00;10590557;27;20090;-79
2023/11/29 04:59:08;;;;;;;11.43;2.03;;;;;;;19.25;100.00;100920.75;10604913;27;20071;-79
2023/11/29 05:04:30;;;;;;;7.50;1.70;;;;;;;19.24;100.00;100937.72;10605128;27;20044;-83
2023/11/29 05:09:55;;;;;;;7.40;1.80;;;;;;;19.45;100.00;100936.47;10590704;27;20047;-81
2023/11/29 05:15:17;;;;;;;8.50;1.65;;;;;;;19.54;100.00;100938.16;10589992;27;20100;-81
2023/11/29 05:20:40;;;;;;;9.23;1.67;;;;;;;19.64;100.00;100935.25;10604621;27;20597;-81
2023/11/29 05:26:04;;;;;;;9.88;2.53;;;;;;;19.77;100.00;100935.91;10581513;27;20044;-81
2023/11/29 05:31:27;;;;;;;8.25;3.40;;;;;;;19.71;100.00;100939.59;10567853;27;20545;-79
2023/11/29 05:36:49;;;;;;;12.07;2.17;;;;;;;19.81;100.00;100941.19;10576152;27;20054;-79
2023/11/29 05:42:13;;;;;;;8.93;2.83;;;;;;;19.99;100.00;100939.06;10546232;28;20039;-78
2023/11/29 05:47:35;;;;;;;13.05;6.30;;;;;;;20.20;100.00;100933.25;10548057;27;20284;-79
2023/11/29 05:52:59;;;;;;;7.45;2.38;;;;;;;20.27;100.00;100941.16;10596851;27;20078;-78
2023/11/29 05:58:25;;;;;;;8.15;1.25;;;;;;;20.43;100.00;100936.34;10571341;27;20071;-77
2023/11/29 06:03:47;;;;;;;10.02;1.55;;;;;;;20.49;100.00;100946.06;10575596;27;20047;-78
2023/11/29 06:09:10;;;;;;;10.65;2.85;;;;;;;20.62;100.00;100937.69;10568889;28;20150;-78
2023/11/29 06:14:34;;;;;;;10.45;1.92;;;;;;;20.88;100.00;100953.19;10600272;28;20043;-77
2023/11/29 06:19:56;;;;;;;9.23;1.90;;;;;;;21.21;97.77;100953.31;10600107;28;20052;-77
2023/11/29 06:25:19;;;;;;;8.38;1.60;;;;;;;21.41;94.94;100959.06;10586233;27;20078;-75
2023/11/29 06:30:43;;;;;;;6.13;1.60;;;;;;;21.57;94.43;100963.13;10594159;27;20086;-75
2023/11/29 06:36:06;;;;;;;11.35;3.38;;;;;;;21.66;96.27;100967.41;10601092;27;20484;-75
2023/11/29 06:41:29;;;;;;;11.68;7.07;;;;;;;21.65;97.74;100979.06;10608009;27;20492;-76
2023/11/29 06:46:54;;;;;;;11.23;1.83;;;;;;;21.66;98.14;100979.00;10595983;27;20044;-75
2023/11/29 06:52:17;;;;;;;7.03;2.95;;;;;;;21.64;96.74;100977.28;10584205;27;20480;-75
2023/11/29 06:57:39;;;;;;;6.47;1.85;;;;;;;21.69;96.59;100978.03;10582026;27;20468;-77
2023/11/29 07:03:04;;;;;;;13.38;4.88;;;;;;;21.69;96.24;100978.03;10605385;27;20080;-77
2023/11/29 07:08:26;;;;;;;23.02;16.10;;;;;;;21.70;96.49;100990.56;10590659;27;20055;-76
2023/11/29 07:13:48;;;;;;;11.07;4.82;;;;;;;21.86;94.87;100989.22;10561269;27;20071;-79
2023/11/29 07:19:13;;;;;;;24.23;14.23;;;;;;;21.82;95.74;100983.06;10594086;27;20052;-77
2023/11/29 07:24:35;;;;;;;16.88;10.63;;;;;;;22.01;94.42;101004.09;10580906;27;20052;-77
2023/11/29 07:29:58;;;;;;;13.65;7.22;;;;;;;22.19;92.98;101015.22;10582548;27;20124;-77
2023/11/29 07:35:22;;;;;;;8.75;5.25;;;;;;;22.34;90.11;101000.44;10559141;27;20043;-78
2023/11/29 07:40:44;;;;;;;16.30;8.98;;;;;;;22.22;87.84;100996.31;10558468;27;20043;-77
2023/11/29 07:46:06;;;;;;;9.25;2.15;;;;;;;22.28;88.52;100973.72;10567605;27;20104;-78
2023/11/29 07:51:30;;;;;;;14.45;8.48;;;;;;;22.45;87.92;100940.97;10586189;27;20055;-77
2023/11/29 07:56:53;;;;;;;20.73;12.68;;;;;;;22.38;89.95;100961.78;10569083;27;20065;-80
2023/11/29 08:02:15;;;;;;;15.65;9.60;;;;;;;22.41;89.81;100955.41;10586105;27;20071;-78
2023/11/29 08:07:39;;;;;;;10.75;5.93;;;;;;;22.20;90.76;100965.88;10561616;27;20044;-79
2023/11/29 08:13:02;;;;;;;12.73;4.93;;;;;;;22.22;90.53;100947.00;10568670;27;20079;-78
2023/11/29 08:18:25;;;;;;;15.20;10.13;;;;;;;22.15;90.93;100954.38;10559730;27;20051;-79
2023/11/29 08:23:49;;;;;;;19.65;8.15;;;;;;;22.13;90.21;100960.72;10606405;27;20154;-80
2023/11/29 08:29:12;;;;;;;19.02;11.30;;;;;;;22.25;86.86;100995.34;10589433;27;20671;-79
2023/11/29 08:34:34;;;;;;;20.08;10.18;;;;;;;22.34;85.14;101015.72;10591361;27;20051;-81
2023/11/29 08:39:59;;;;;;;30.25;17.38;;;;;;;22.40;87.82;100989.50;10601190;27;20051;-79
2023/11/29 08:45:22;;;;;;;13.27;8.05;;;;;;;22.74;86.43;100969.69;10555012;27;20047;-80
2023/11/29 08:50:44;;;;;;;15.85;6.35;;;;;;;22.76;83.57;100955.25;10587148;27;20046;-80
2023/11/29 08:56:18;;;;;;;25.35;12.63;;;;;;;22.78;83.67;100964.16;10602951;27;20047;-78
2023/11/29 09:01:40;;;;;;;13.45;7.00;;;;;;;22.83;84.61;100954.13;10593130;27;20043;-78
2023/11/29 09:07:04;;;;;;;16.98;7.93;;;;;;;22.80;83.84;100923.72;10595945;27;20274;-78
2023/11/29 09:12:29;;;;;;;13.55;6.00;;;;;;;22.65;86.38;100927.72;10579725;27;20073;-78
2023/11/29 09:17:52;;;;;;;15.13;5.35;;;;;;;22.76;86.64;100912.19;10581708;27;20039;-77
2023/11/29 09:23:15;;;;;;;14.30;3.88;;;;;;;23.02;82.06;100912.22;10601746;27;20047;-78
2023/11/29 09:28:39;;;;;;;8.45;2.35;;;;;;;23.19;83.30;100913.44;10576806;27;20071;-77
2023/11/29 09:34:01;;;;;;;9.10;2.40;;;;;;;24.42;73.87;100866.66;10578947;27;20063;-76
2023/11/29 09:39:23;;;;;;;9.70;2.50;;;;;;;24.57;68.18;100881.38;10593263;27;20048;-78
2023/11/29 09:44:48;;;;;;;9.93;2.47;;;;;;;23.43;81.71;100856.03;10599428;27;20150;-77
2023/11/29 09:50:10;;;;;;;13.95;2.00;;;;;;;23.34;82.86;100883.28;10595050;27;20050;-76
2023/11/29 09:55:33;;;;;;;32.47;21.83;;;;;;;23.41;81.95;100884.84;10576741;27;20053;-78
2023/11/29 10:00:58;;;;;;;12.10;5.20;;;;;;;24.67;68.51;100874.69;10576277;27;20134;-78
2023/11/29 10:06:21;;;;;;;12.98;4.22;;;;;;;24.97;66.58;100856.34;10580314;28;20498;-78
2023/11/29 10:11:44;;;;;;;17.98;6.57;;;;;;;25.95;60.29;100852.88;10596788;28;20116;-78
2023/11/29 10:17:13;;;;;;;17.77;2.40;;;;;;;24.27;68.56;100856.50;10568664;28;20071;-78
2023/11/29 10:22:36;;;;;;;17.70;9.38;;;;;;;24.23;71.76;100858.41;10581103;28;20043;-77
2023/11/29 10:27:59;;;;;;;12.40;6.07;;;;;;;25.80;59.80;100857.16;10574262;28;20055;-77
2023/11/29 10:33:23;;;;;;;12.13;3.88;;;;;;;25.79;56.95;100877.09;10589199;28;20054;-77
2023/11/29 10:38:49;;;;;;;14.30;2.60;;;;;;;25.77;57.29;100833.88;10583725;28;20043;-78
2023/11/29 10:44:14;;;;;;;16.30;2.47;;;;;;;25.60;58.80;100855.38;10578569;27;20043;-77
2023/11/29 10:49:46;;;;;;;15.52;4.60;;;;;;;25.95;58.50;100851.06;10565142;28;20043;-76
2023/11/29 10:55:10;;;;;;;16.02;2.95;;;;;;;26.02;55.20;100828.19;10577995;28;20047;-76
2023/11/29 11:00:32;;;;;;;8.30;2.50;;;;;;;26.34;52.11;100836.63;10570309;28;20115;-76
2023/11/29 11:06:35;;;;;;;11.55;2.83;;;;;;;26.09;52.50;100837.78;10562666;28;20051;-77
2023/11/29 11:11:59;;;;;;;9.75;1.83;;;;;;;25.31;59.56;100839.56;10573296;27;20407;-77
2023/11/29 11:17:22;;;;;;;18.67;12.20;;;;;;;24.89;62.51;100831.44;10586174;27;20039;-77
2023/11/29 11:22:49;;;;;;;10.27;3.88;;;;;;;24.77;64.25;100832.84;10565933;27;20051;-77
2023/11/29 11:28:28;;;;;;;16.08;8.07;;;;;;;24.18;69.83;100802.84;10579159;27;20066;-76
2023/11/29 11:34:12;;;;;;;12.85;4.07;;;;;;;23.38;79.36;100831.91;10583553;27;20588;-77
2023/11/29 11:39:37;;;;;;;9.75;2.28;;;;;;;23.03;86.70;100857.41;10562295;27;20039;-78
2023/11/29 11:45:00;;;;;;;13.88;2.70;;;;;;;22.79;92.20;100831.31;10589924;27;20055;-78
2023/11/29 11:50:23;;;;;;;10.32;3.40;;;;;;;22.80;92.17;100821.41;10575988;27;20092;-76
2023/11/29 11:55:48;;;;;;;15.60;2.63;;;;;;;22.81;94.60;100817.81;10605106;27;20095;-76
2023/11/29 12:01:11;;;;;;;17.05;9.40;;;;;;;23.04;94.85;100829.53;10594778;27;20168;-77
2023/11/29 12:06:34;;;;;;;14.45;3.08;;;;;;;22.63;96.65;100811.19;10592663;27;20043;-78
2023/11/29 12:12:09;;;;;;;17.88;6.60;;;;;;;22.63;99.95;100803.13;10590982;27;20067;-77
2023/11/29 12:17:35;;;;;;;10.85;3.15;;;;;;;22.63;98.95;100800.44;10600124;27;20047;-77
2023/11/29 12:22:58;;;;;;;10.57;2.00;;;;;;;22.40;100.00;100825.38;10603881;27;20404;-77
2023/11/29 12:28:28;;;;;;;13.73;3.40;;;;;;;22.48;100.00;100806.31;10584725;27;20154;-77
2023/11/29 12:33:50;;;;;;;9.50;2.47;;;;;;;22.32;100.00;100821.19;10603995;27;20058;-76
2023/11/29 12:39:13;;;;;;;13.15;2.10;;;;;;;22.16;100.00;100828.84;10586168;27;20112;-77
2023/11/29 12:44:37;;;;;;;11.85;2.55;;;;;;;22.05;100.00;100822.94;10586524;27;20055;-77
2023/11/29 12:50:00;;;;;;;15.48;1.88;;;;;;;21.97;100.00;100838.41;10584797;27;20167;-77
2023/11/29 12:55:22;;;;;;;10.45;2.38;;;;;;;21.79;100.00;100834.44;10571017;27;20046;-76
2023/11/29 13:00:46;;;;;;;11.60;3.17;;;;;;;21.66;100.00;100828.50;10576073;27;20050;-77
2023/11/29 13:06:09;;;;;;;12.20;2.60;;;;;;;21.58;100.00;100830.56;10587916;27;20051;-77
2023/11/29 13:11:32;;;;;;;12.95;2.33;;;;;;;21.50;100.00;100829.88;10569510;27;20112;-77
2023/11/29 13:16:56;;;;;;;17.50;3.47;;;;;;;21.50;100.00;100820.94;10568873;27;20126;-76
2023/11/29 13:22:19;;;;;;;10.55;2.60;;;;;;;21.38;100.00;100832.94;10576655;27;20092;-76
2023/11/29 13:27:42;;;;;;;15.27;3.83;;;;;;;21.34;100.00;100833.91;10573405;27;20039;-77
2023/11/29 13:33:06;;;;;;;11.20;3.08;;;;;;;21.47;100.00;100838.91;10582561;27;20043;-77
2023/11/29 13:38:28;;;;;;;15.65;3.03;;;;;;;21.39;100.00;100867.81;10561415;27;20123;-77
2023/11/29 13:43:50;;;;;;;14.38;2.38;;;;;;;21.37;100.00;100868.75;10560122;27;20493;-77
2023/11/29 13:49:15;;;;;;;10.18;2.22;;;;;;;21.44;100.00;100884.69;10572550;27;20068;-76
2023/11/29 13:54:38;;;;;;;17.55;5.18;;;;;;;21.31;100.00;100883.25;10572022;27;20054;-77
2023/11/29 14:00:00;;;;;;;16.52;3.30;;;;;;;21.18;100.00;100888.97;10561905;27;20440;-77
2023/11/29 14:05:24;;;;;;;18.52;2.75;;;;;;;21.15;100.00;100910.47;10565714;27;20051;-78
2023/11/29 14:10:47;;;;;;;15.18;3.25;;;;;;;21.09;100.00;100927.63;10584660;27;20049;-78
2023/11/29 14:16:10;;;;;;;18.35;3.10;;;;;;;21.06;100.00;100944.72;10551238;28;20416;-77
2023/11/29 14:21:34;;;;;;;17.58;2.88;;;;;;;20.96;100.00;100956.59;10578834;28;20051;-78
2023/11/29 14:26:57;;;;;;;17.98;2.83;;;;;;;20.97;100.00;100979.81;10584509;28;20051;-77
2023/11/29 14:32:19;;;;;;;17.73;3.10;;;;;;;21.23;100.00;100998.03;10571895;28;20046;-76
2023/11/29 14:37:44;;;;;;;14.68;2.75;;;;;;;21.30;100.00;101002.34;10565603;28;20286;-77
2023/11/29 14:43:06;;;;;;;20.33;3.33;;;;;;;21.21;100.00;101007.91;10563132;28;20135;-77
2023/11/29 14:48:28;;;;;;;21.75;3.00;;;;;;;21.05;100.00;101002.00;10582207;27;20054;-76
2023/11/29 14:53:52;;;;;;;15.07;2.35;;;;;;;20.75;100.00;101004.50;10603549;27;20051;-77
2023/11/29 14:59:15;;;;;;;19.20;3.60;;;;;;;20.44;100.00;100996.25;10577024;27;20050;-77
2023/11/29 15:04:38;;;;;;;22.15;3.83;;;;;;;20.35;100.00;101007.19;10575918;27;20071;-77
2023/11/29 15:10:02;;;;;;;20.25;3.00;;;;;;;20.33;100.00;101001.84;10563614;27;20046;-77
2023/11/29 15:15:25;;;;;;;16.63;2.80;;;;;;;20.34;100.00;101008.97;10596251;27;20396;-76
2023/11/29 15:20:47;;;;;;;26.40;2.70;;;;;;;20.16;100.00;101011.97;10570640;27;20119;-76
2023/11/29 15:26:11;;;;;;;20.30;2.80;;;;;;;20.20;100.00;101014.56;10548381;27;20044;-76
2023/11/29 15:31:34;;;;;;;20.98;3.00;;;;;;;19.98;100.00;101010.53;10590569;27;20374;-76
2023/11/29 15:36:56;;;;;;;20.05;3.50;;;;;;;20.05;100.00;101014.88;10591778;27;20039;-76
2023/11/29 15:42:21;;;;;;;18.23;3.33;;;;;;;19.96;100.00;101007.00;10597294;27;20504;-76
2023/11/29 15:47:44;;;;;;;29.27;3.15;;;;;;;20.05;100.00;101005.94;10601577;27;20452;-75
2023/11/29 15:53:06;;;;;;;26.38;3.75;;;;;;;20.06;100.00;101007.72;10589995;27;20047;-75
2023/11/29 15:58:30;;;;;;;18.42;2.50;;;;;;;20.00;100.00;101005.16;10582075;27;20215;-77
2023/11/29 16:03:55;;;;;;;18.30;3.50;;;;;;;20.11;100.00;101012.06;10570705;27;20430;-77
2023/11/29 16:09:17;;;;;;;25.13;3.88;;;;;;;20.08;100.00;101003.22;10574246;27;20066;-77
2023/11/29 16:14:41;;;;;;;26.75;3.58;;;;;;;19.99;100.00;100993.53;10559307;27;20055;-77
2023/11/29 16:20:05;;;;;;;30.27;3.78;;;;;;;19.99;100.00;100998.03;10592318;27;20043;-75
2023/11/29 16:25:27;;;;;;;19.42;3.85;;;;;;;20.02;100.00;100997.97;10579640;27;20660;-75
2023/11/29 16:30:52;;;;;;;21.52;3.45;;;;;;;20.06;100.00;101008.59;10549854;27;20047;-75
2023/11/29 16:36:14;;;;;;;20.77;3.67;;;;;;;20.04;100.00;101017.56;10561301;27;20051;-76
2023/11/29 16:41:37;;;;;;;31.23;9.20;;;;;;;20.04;100.00;101034.53;10566170;27;20289;-77
2023/11/29 16:47:03;;;;;;;20.17;4.22;;;;;;;20.15;100.00;101045.94;10581086;27;20047;-77
2023/11/29 16:52:25;;;;;;;31.63;3.70;;;;;;;20.06;100.00;101038.09;10564493;27;20470;-75
2023/11/29 16:57:48;;;;;;;25.35;3.70;;;;;;;20.04;100.00;101053.31;10597878;27;20039;-77
2023/11/29 17:03:14;;;;;;;29.45;5.22;;;;;;;20.14;100.00;101048.66;10568536;27;20116;-77
2023/11/29 17:08:37;;;;;;;27.20;3.90;;;;;;;20.06;100.00;101074.72;10589084;27;20400;-76
2023/11/29 17:13:59;;;;;;;17.85;4.00;;;;;;;20.12;100.00;101067.44;10579306;27;20047;-77
2023/11/29 17:19:23;;;;;;;21.98;6.60;;;;;;;19.95;100.00;101092.81;10599866;27;20135;-76
2023/11/29 17:24:46;;;;;;;26.98;3.63;;;;;;;19.97;100.00;101086.47;10589421;27;20481;-77
2023/11/29 17:30:09;;;;;;;23.65;5.28;;;;;;;19.86;100.00;101105.44;10571786;27;20058;-77
2023/11/29 17:35:33;;;;;;;23.80;3.95;;;;;;;19.85;100.00;101117.06;10599624;27;20047;-77
2023/11/29 17:40:56;;;;;;;26.73;4.40;;;;;;;19.97;100.00;101120.44;10577013;27;20480;-77
2023/11/29 17:46:18;;;;;;;42.13;13.05;;;;;;;19.95;100.00;101124.97;10582476;27;20052;-77
2023/11/29 17:51:42;;;;;;;36.72;4.20;;;;;;;19.68;100.00;101123.63;10593765;27;20059;-77
2023/11/29 17:57:05;;;;;;;25.10;3.95;;;;;;;19.70;100.00;101119.09;10573734;27;20082;-77
2023/11/29 18:02:28;;;;;;;34.95;8.82;;;;;;;19.79;100.00;101122.53;10562080;27;20036;-75
2023/11/29 18:07:52;;;;;;;22.67;4.40;;;;;;;19.63;100.00;101107.59;10569413;27;20142;-78
2023/11/29 18:13:14;;;;;;;23.75;3.85;;;;;;;19.65;100.00;101096.88;10590159;27;20050;-76
2023/11/29 18:18:40;;;;;;;24.50;3.83;;;;;;;19.77;100.00;101113.63;10598068;27;20096;-77
2023/11/29 18:24:04;;;;;;;27.80;4.50;;;;;;;19.82;100.00;101108.22;10596458;27;20116;-77
2023/11/29 18:29:28;;;;;;;30.63;5.80;;;;;;;19.66;100.00;101107.56;10586995;27;20051;-77
2023/11/29 18:34:50;;;;;;;26.35;3.53;;;;;;;19.59;100.00;101110.38;10588638;27;20078;-78
2023/11/29 18:40:15;;;;;;;23.00;3.55;;;;;;;19.62;100.00;101104.97;10591615;27;20473;-78
2023/11/29 18:45:38;;;;;;;18.80;3.95;;;;;;;19.64;100.00;101093.31;10580639;27;20085;-77
2023/11/29 18:51:02;;;;;;;25.35;3.60;;;;;;;19.73;100.00;101103.88;10591178;27;20052;-76
2023/11/29 18:56:26;;;;;;;25.90;4.45;;;;;;;19.71;100.00;101088.72;10574971;27;20047;-76
2023/11/29 19:01:48;;;;;;;22.98;4.22;;;;;;;19.78;100.00;101093.97;10597677;27;20043;-77
2023/11/29 19:07:11;;;;;;;28.85;4.63;;;;;;;19.75;100.00;101101.19;10581954;27;20039;-75
2023/11/29 19:12:35;;;;;;;24.17;4.07;;;;;;;19.74;100.00;101073.50;10595444;27;20051;-74
2023/11/29 19:17:57;;;;;;;23.35;3.80;;;;;;;19.76;100.00;101087.72;10573758;27;20325;-77
2023/11/29 19:23:20;;;;;;;25.35;3.60;;;;;;;19.74;100.00;101094.06;10576732;27;20828;-75
2023/11/29 19:28:44;;;;;;;31.10;5.38;;;;;;;19.77;100.00;101104.69;10595897;27;20039;-75
2023/11/29 19:34:06;;;;;;;16.38;4.53;;;;;;;19.74;100.00;101113.69;10598898;27;20045;-76
2023/11/29 19:39:29;;;;;;;29.45;4.38;;;;;;;19.82;100.00;101109.06;10596982;27;20047;-75
2023/11/29 19:44:54;;;;;;;27.55;4.03;;;;;;;19.90;100.00;101100.91;10587258;27;20043;-76
2023/11/29 19:50:16;;;;;;;21.23;3.90;;;;;;;19.84;100.00;101083.13;10593525;27;20098;-75
2023/11/29 19:55:38;;;;;;;26.05;5.25;;;;;;;19.88;100.00;101092.91;10590110;27;20131;-75
2023/11/29 20:01:03;;;;;;;24.02;3.85;;;;;;;19.94;100.00;101115.16;10584369;27;20836;-74
2023/11/29 20:06:25;;;;;;;26.30;4.15;;;;;;;19.92;100.00;101123.22;10600512;27;20108;-75
2023/11/29 20:11:47;;;;;;;23.17;3.67;;;;;;;19.88;100.00;101116.16;10577620;27;20396;-74
2023/11/29 20:17:12;;;;;;;24.92;3.95;;;;;;;19.88;100.00;101125.06;10599441;27;20442;-76
2023/11/29 20:22:34;;;;;;;17.42;2.72;;;;;;;19.92;100.00;101117.84;10575217;27;20469;-76
2023/11/29 20:27:56;;;;;;;28.10;3.25;;;;;;;19.88;100.00;101129.53;10593436;27;20040;-75
2023/11/29 20:33:20;;;;;;;23.08;4.00;;;;;;;19.91;100.00;101129.47;10584498;27;20051;-76
2023/11/29 20:38:43;;;;;;;27.73;4.78;;;;;;;19.89;100.00;101134.84;10601580;27;20042;-76
2023/11/29 20:44:05;;;;;;;23.67;3.55;;;;;;;19.90;100.00;101133.06;10590022;27;20072;-76
2023/11/29 20:49:29;;;;;;;28.55;5.55;;;;;;;19.95;100.00;101135.69;10584629;27;20051;-77
2023/11/29 20:54:52;;;;;;;24.33;3.58;;;;;;;19.92;100.00;101135.72;10576655;27;20042;-76
2023/11/29 21:00:15;;;;;;;22.23;3.33;;;;;;;19.86;100.00;101137.59;10594031;27;20043;-76
2023/11/29 21:05:39;;;;;;;23.90;3.55;;;;;;;19.81;100.00;101143.94;10590290;27;20054;-76
2023/11/29 21:11:03;;;;;;;14.32;2.78;;;;;;;19.75;100.00;101139.56;10586740;27;20130;-76
2023/11/29 21:16:26;;;;;;;27.83;4.47;;;;;;;19.76;100.00;101135.97;10587196;27;20563;-76
2023/11/29 21:21:50;;;;;;;28.17;4.47;;;;;;;19.73;100.00;101130.66;10602162;27;20092;-76
2023/11/29 21:27:12;;;;;;;24.85;4.07;;;;;;;19.74;100.00;101136.91;10572117;27;20498;-75
2023/11/29 21:32:35;;;;;;;24.05;4.05;;;;;;;19.71;100.00;101137.84;10586108;27;20050;-76
2023/11/29 21:37:59;;;;;;;31.10;5.57;;;;;;;19.71;100.00;101137.84;10591973;27;20082;-76
2023/11/29 21:43:21;;;;;;;25.40;4.32;;;;;;;19.71;100.00;101135.16;10591995;27;20123;-76
2023/11/29 21:48:44;;;;;;;20.15;3.88;;;;;;;19.66;100.00;101145.06;10558121;28;20108;-76
2023/11/29 21:54:08;;;;;;;24.30;3.92;;;;;;;19.67;100.00;101137.91;10537759;28;20052;-77
2023/11/29 21:59:30;;;;;;;23.05;4.50;;;;;;;19.69;100.00;101146.84;10516946;28;20048;-77
2023/11/29 22:04:52;;;;;;;19.63;3.70;;;;;;;19.77;100.00;101143.09;10550684;28;20135;-77
2023/11/29 22:10:16;;;;;;;36.28;5.30;;;;;;;19.75;100.00;101131.53;10569513;28;20051;-77
2023/11/29 22:15:39;;;;;;;20.15;3.97;;;;;;;19.84;100.00;101141.19;10571138;28;20435;-77
2023/11/29 22:21:01;;;;;;;25.25;3.90;;;;;;;19.82;100.00;101126.97;10558257;28;20047;-77
2023/11/29 22:26:26;;;;;;;22.90;3.45;;;;;;;19.81;100.00;101147.50;10554576;28;20040;-77
2023/11/29 22:31:48;;;;;;;19.20;3.78;;;;;;;19.82;100.00;101143.91;10520882;28;20051;-77
2023/11/29 22:37:11;;;;;;;24.13;4.68;;;;;;;19.76;100.00;101146.69;10559386;28;20120;-77
2023/11/29 22:42:35;;;;;;;21.63;2.75;;;;;;;19.73;100.00;101140.50;10562089;28;20137;-77
2023/11/29 22:47:57;;;;;;;27.38;4.25;;;;;;;19.69;100.00;101139.66;10530123;28;20148;-77
2023/11/29 22:53:20;;;;;;;18.75;3.83;;;;;;;19.74;100.00;101148.53;10529757;28;20089;-75
2023/11/29 22:58:44;;;;;;;28.42;3.55;;;;;;;19.71;100.00;101137.84;10516158;28;20048;-75
2023/11/29 23:04:07;;;;;;;25.23;3.33;;;;;;;19.70;100.00;101137.84;10515687;28;20097;-75
2023/11/29 23:09:29;;;;;;;27.25;4.55;;;;;;;19.70;100.00;101136.06;10518146;28;20078;-75
2023/11/29 23:14:53;;;;;;;24.17;3.90;;;;;;;19.66;100.00;101134.34;10537156;28;20127;-75
2023/11/29 23:20:15;;;;;;;23.65;4.70;;;;;;;19.65;100.00;101129.91;10536281;28;20048;-76
2023/11/29 23:25:38;;;;;;;23.80;3.50;;;;;;;19.61;100.00;101135.34;10537068;28;20506;-76
2023/11/29 23:31:02;;;;;;;24.42;4.22;;;;;;;19.62;100.00;101129.09;10536290;28;20063;-77
2023/11/29 23:36:25;;;;;;;33.45;5.22;;;;;;;19.64;100.00;101114.72;10536122;28;20059;-76
2023/11/29 23:41:47;;;;;;;40.70;5.70;;;;;;;19.71;100.00;101128.91;10521365;28;20097;-76
2023/11/29 23:47:11;;;;;;;42.55;4.88;;;;;;;19.75;100.00;101125.28;10560902;27;20083;-77
2023/11/29 23:52:34;;;;;;;30.23;4.85;;;;;;;19.74;100.00;101126.19;10586819;27;20048;-76
2023/11/29 23:57:56;;;;;;;25.75;3.78;;;;;;;19.81;100.00;101141.28;10570078;27;20380;-77
